M I D A S
Marine Information and Data Acquisition System
Tripno 895 of the Zeeleeuw from 2005-05-04 04:48:49 to 2005-05-04 15:22:24
Back to CruiseResearch ActivitiesStationsMapUnderway DataData graphs

EquipmentUnitsComment
TimeDGPSUTC
LatitudeDGPSDM.mWGS84
LongitudeDGPSDM.mWGS84
HeadingGyrodeg 
SOGDGPSknotsSpeed over ground
COGDGPSdegCourse over ground
DepthEcho soundermeters200 kHz
Missing or incorrect values are displayed as -999
Navigation data collected by the RV Zeeleeuw from 2005-05-04 04:43:54 to 2005-05-04 15:33:31
                                                                                    Next 1000 lines
Time Latitude Longitude Heading SOG COG Depth
2005-05-04 04:44:04 51°13.595 2°56.096 115.2 1 289 6.2
2005-05-04 04:44:09 51°13.596 2°56.093 115.8 1 289 6.2
2005-05-04 04:44:14 51°13.597 2°56.088 116.4 1 289 6.3
2005-05-04 04:44:19 51°13.599 2°56.084 117 1 289 -999
2005-05-04 04:44:25 51°13.6 2°56.078 117.4 2.4 297 -999
2005-05-04 04:44:30 51°13.602 2°56.073 117.6 2.6 297 -999
2005-05-04 04:44:35 51°13.604 2°56.068 117.8 2.6 297 -999
2005-05-04 04:44:40 51°13.605 2°56.062 118 2.8 297 -999
2005-05-04 04:44:45 51°13.608 2°56.055 118.2 2.8 297 -999
2005-05-04 04:44:49 51°13.61 2°56.05 118.6 3.1 298 -999
2005-05-04 04:44:55 51°13.612 2°56.043 119.1 3.2 298 -999
2005-05-04 04:44:59 51°13.614 2°56.037 119.7 3.3 298 -999
2005-05-04 04:45:05 51°13.616 2°56.03 119.9 3.4 298 -999
2005-05-04 04:45:10 51°13.618 2°56.023 120.1 3.5 298 -999
2005-05-04 04:45:15 51°13.621 2°56.016 120.3 3.6 298 -999
2005-05-04 04:45:19 51°13.623 2°56.009 120.3 3.7 297 -999
2005-05-04 04:45:25 51°13.625 2°56.001 120.4 3.7 297 -999
2005-05-04 04:45:29 51°13.627 2°55.994 120.4 3.8 296 -999
2005-05-04 04:45:35 51°13.63 2°55.985 121.1 3.9 296 -999
2005-05-04 04:45:39 51°13.632 2°55.978 121.9 3.9 297 -999
2005-05-04 04:45:45 51°13.635 2°55.97 123.2 3.9 297 -999
2005-05-04 04:45:49 51°13.638 2°55.962 124.8 4.1 299 -999
2005-05-04 04:45:55 51°13.641 2°55.954 126.1 4.2 301 -999
2005-05-04 04:46:00 51°13.645 2°55.946 127.3 4.2 302 -999
2005-05-04 04:46:04 51°13.648 2°55.939 128.5 4.2 303 -999
2005-05-04 04:46:09 51°13.652 2°55.931 129.6 4.2 305 -999
2005-05-04 04:46:15 51°13.656 2°55.923 130.6 4.3 306 -999
2005-05-04 04:46:19 51°13.659 2°55.916 131.3 4.4 308 -999
2005-05-04 04:46:25 51°13.663 2°55.908 131.3 4.4 308 -999
2005-05-04 04:46:29 51°13.667 2°55.9 131.4 4.4 309 -999
2005-05-04 04:46:35 51°13.671 2°55.892 131.3 4.4 309 -999
2005-05-04 04:46:39 51°13.675 2°55.885 130.9 4.4 309 -999
2005-05-04 04:46:45 51°13.679 2°55.876 130 4.4 309 -999
2005-05-04 04:46:49 51°13.682 2°55.87 128.9 4.3 307 -999
2005-05-04 04:46:55 51°13.685 2°55.862 127.7 4.2 306 -999
2005-05-04 04:46:59 51°13.689 2°55.855 126.5 4.2 306 -999
2005-05-04 04:47:05 51°13.692 2°55.846 125.2 4.2 306 -999
2005-05-04 04:47:09 51°13.695 2°55.839 123.8 4.1 303 -999
2005-05-04 04:47:15 51°13.698 2°55.831 122.4 4.1 303 -999
2005-05-04 04:47:19 51°13.7 2°55.824 120.7 4 300 -999
2005-05-04 04:47:25 51°13.703 2°55.815 119.1 4 298 -999
2005-05-04 04:47:29 51°13.705 2°55.808 117.5 4 298 -999
2005-05-04 04:47:35 51°13.708 2°55.8 115.9 3.9 296 -999
2005-05-04 04:47:39 51°13.71 2°55.794 114.4 3.9 294 -999
2005-05-04 04:47:45 51°13.712 2°55.784 113 3.9 294 -999
2005-05-04 04:47:49 51°13.714 2°55.776 111.6 4 292 -999
2005-05-04 04:47:55 51°13.716 2°55.767 109.7 4 292 -999
2005-05-04 04:47:59 51°13.717 2°55.76 108.4 4 289 -999
2005-05-04 04:48:05 51°13.719 2°55.751 106.8 4 289 -999
2005-05-04 04:48:09 51°13.721 2°55.744 105.3 4 289 -999
2005-05-04 04:48:14 51°13.721 2°55.738 103.7 4 289 -999
2005-05-04 04:48:19 51°13.722 2°55.734 101.1 4 289 -999
2005-05-04 04:48:24 51°13.723 2°55.731 97.8 2.1 289 10.8
2005-05-04 04:48:29 51°13.723 2°55.731 94.6 2.1 289 10.6
2005-05-04 04:48:34 51°13.725 2°55.731 90.7 2.1 289 10.5
2005-05-04 04:48:39 51°13.725 2°55.733 84.6 0.7 25 10.4
2005-05-04 04:48:44 51°13.727 2°55.735 77.4 1.4 47 10.5
2005-05-04 04:48:49 51°13.729 2°55.737 69.4 1.4 47 10.3
2005-05-04 04:48:54 51°13.73 2°55.737 61.9 1.4 47 10.7
2005-05-04 04:48:59 51°13.731 2°55.737 56.7 0.6 14 10.4
2005-05-04 04:49:05 51°13.731 2°55.736 51.8 0.6 14 10.5
2005-05-04 04:49:09 51°13.732 2°55.735 46.9 0.6 14 10.2
2005-05-04 04:49:14 51°13.731 2°55.734 43.5 0.7 261 10.2
2005-05-04 04:49:19 51°13.731 2°55.732 39.8 0.7 261 10.2
2005-05-04 04:49:23 51°13.729 2°55.729 36.5 0.7 261 10.3
2005-05-04 04:49:29 51°13.727 2°55.726 32.8 1.6 224 10.2
2005-05-04 04:49:35 51°13.725 2°55.724 29.9 1.6 224 -999
2005-05-04 04:49:39 51°13.724 2°55.722 27 1.5 219 -999
2005-05-04 04:49:44 51°13.723 2°55.72 24.8 1.1 229 -999
2005-05-04 04:49:49 51°13.723 2°55.72 22.9 0.5 240 -999
2005-05-04 04:49:55 51°13.725 2°55.719 17.9 0.7 328 -999
2005-05-04 04:49:59 51°13.726 2°55.718 12 0.9 342 -999
2005-05-04 04:50:05 51°13.729 2°55.717 4.9 1.8 343 -999
2005-05-04 04:50:09 51°13.732 2°55.715 356.9 1.8 343 -999
2005-05-04 04:50:15 51°13.735 2°55.712 348.5 2.3 333 -999
2005-05-04 04:50:19 51°13.738 2°55.71 342.2 2.4 333 5
2005-05-04 04:50:25 51°13.742 2°55.705 338.4 2.4 333 -999
2005-05-04 04:50:29 51°13.745 2°55.702 335.6 3.5 327 9.3
2005-05-04 04:50:33 51°13.75 2°55.697 334.4 3.8 329 9.1
2005-05-04 04:50:39 51°13.756 2°55.69 333.9 4.5 326 9.2
2005-05-04 04:50:44 51°13.764 2°55.683 334.8 4.5 326 9.2
2005-05-04 04:50:49 51°13.772 2°55.677 336.8 5.9 332 9.3
2005-05-04 04:50:54 51°13.779 2°55.671 338.5 5.9 332 9.2
2005-05-04 04:50:59 51°13.789 2°55.664 339.6 6.8 334 9.2
2005-05-04 04:51:04 51°13.798 2°55.657 340.7 7.1 336 9.2
2005-05-04 04:51:09 51°13.807 2°55.652 341.4 7.5 337 9.1
2005-05-04 04:51:14 51°13.818 2°55.643 341.1 7.5 337 9.1
2005-05-04 04:51:19 51°13.827 2°55.637 340.5 8.1 336 9.3
2005-05-04 04:51:24 51°13.839 2°55.629 340.6 8.1 336 9.2
2005-05-04 04:51:29 51°13.85 2°55.622 341.1 8.5 337 9.2
2005-05-04 04:51:34 51°13.861 2°55.613 341.4 8.6 337 9
2005-05-04 04:51:39 51°13.871 2°55.606 340.3 8.8 335 9
2005-05-04 04:51:44 51°13.884 2°55.596 339.6 8.8 335 8.9
2005-05-04 04:51:49 51°13.895 2°55.588 339.1 8.8 335 9
2005-05-04 04:51:54 51°13.906 2°55.579 338.9 9.2 334 9.2
2005-05-04 04:51:59 51°13.917 2°55.571 338.9 9.3 334 9.1
2005-05-04 04:52:04 51°13.93 2°55.562 338.9 9.4 334 9.2
2005-05-04 04:52:09 51°13.941 2°55.554 339.5 9.4 335 9.1
2005-05-04 04:52:14 51°13.954 2°55.544 340.2 9.5 335 9.4
2005-05-04 04:52:19 51°13.965 2°55.536 340.2 9.5 335 9.3
2005-05-04 04:52:24 51°13.978 2°55.526 340.2 9.6 335 9.3
2005-05-04 04:52:29 51°13.99 2°55.518 340.4 9.6 337 9.2
2005-05-04 04:52:34 51°14.002 2°55.509 340.9 9.6 337 9.2
2005-05-04 04:52:39 51°14.015 2°55.501 341 9.6 337 9
2005-05-04 04:52:43 51°14.023 2°55.495 341.1 9.6 336 8.8
2005-05-04 04:52:49 51°14.039 2°55.484 340.9 9.6 336 8.7
2005-05-04 04:52:54 51°14.05 2°55.476 340.6 9.6 336 8.7
2005-05-04 04:52:59 51°14.063 2°55.466 340.4 9.6 336 8.7
2005-05-04 04:53:04 51°14.076 2°55.457 340.3 9.6 335 8.7
2005-05-04 04:53:09 51°14.086 2°55.449 340.6 9.6 335 8.9
2005-05-04 04:53:14 51°14.098 2°55.44 340.3 9.6 335 8.8
2005-05-04 04:53:19 51°14.11 2°55.431 339.6 9.6 335 9
2005-05-04 04:53:24 51°14.124 2°55.42 339.5 9.6 334 9
2005-05-04 04:53:29 51°14.136 2°55.41 338.8 9.6 334 9.2
2005-05-04 04:53:34 51°14.148 2°55.401 338.1 9.7 333 9.3
2005-05-04 04:53:39 51°14.158 2°55.392 337.8 9.7 333 9.6
2005-05-04 04:53:44 51°14.171 2°55.38 337.5 9.6 332 9.8
2005-05-04 04:53:49 51°14.183 2°55.37 336.7 9.6 332 10.6
2005-05-04 04:53:54 51°14.194 2°55.359 335.7 9.6 330 9.8
2005-05-04 04:53:59 51°14.205 2°55.348 334.7 9.6 330 9.8
2005-05-04 04:54:04 51°14.216 2°55.336 333.1 9.5 325 10.8
2005-05-04 04:54:09 51°14.227 2°55.323 330.6 9.5 323 10.7
2005-05-04 04:54:14 51°14.237 2°55.309 327.1 9.5 323 9.9
2005-05-04 04:54:19 51°14.245 2°55.296 324 9.5 323 10.7
2005-05-04 04:54:24 51°14.255 2°55.279 321 9.5 316 9.9
2005-05-04 04:54:29 51°14.263 2°55.264 318.6 9.7 313 9.8
2005-05-04 04:54:34 51°14.273 2°55.245 315.4 9.8 311 9.9
2005-05-04 04:54:39 51°14.28 2°55.23 314.4 10.1 310 9.9
2005-05-04 04:54:44 51°14.289 2°55.209 313.5 10.2 309 9.8
2005-05-04 04:54:49 51°14.298 2°55.19 311.7 10.4 306 9.5
2005-05-04 04:54:53 51°14.305 2°55.175 310.9 10.4 306 9.8
2005-05-04 04:54:58 51°14.314 2°55.155 310.7 10.9 307 9.8
2005-05-04 04:55:04 51°14.326 2°55.133 312 11 309 9.8
2005-05-04 04:55:09 51°14.336 2°55.113 312.8 11 309 9.8
2005-05-04 04:55:13 51°14.344 2°55.098 313.4 11.4 310 9.7
2005-05-04 04:55:19 51°14.355 2°55.076 313.8 11.4 310 9.7
2005-05-04 04:55:24 51°14.366 2°55.053 313.8 11.7 309 9.5
2005-05-04 04:55:29 51°14.376 2°55.033 313.7 11.8 309 9.5
2005-05-04 04:55:33 51°14.385 2°55.016 313.7 11.9 308 9.6
2005-05-04 04:55:39 51°14.396 2°54.993 313.7 12 308 9.6
2005-05-04 04:55:43 51°14.404 2°54.976 314.1 12.2 308 9.7
2005-05-04 04:55:49 51°14.418 2°54.947 313.7 12.4 306 9.8
2005-05-04 04:55:54 51°14.427 2°54.923 311.8 12.5 305 9.9
2005-05-04 04:55:59 51°14.436 2°54.902 310 12.7 303 9.9
2005-05-04 04:56:04 51°14.446 2°54.878 309.7 12.8 303 9.9
2005-05-04 04:56:09 51°14.457 2°54.852 310.1 12.9 304 9.8
2005-05-04 04:56:14 51°14.467 2°54.827 310.2 13 303 9.9
2005-05-04 04:56:18 51°14.475 2°54.808 310.1 13 303 9.8
2005-05-04 04:56:24 51°14.487 2°54.778 309.9 13.1 303 9.9
2005-05-04 04:56:29 51°14.496 2°54.754 309.8 13.1 303 9.8
2005-05-04 04:56:34 51°14.506 2°54.729 309.6 13.3 303 9.8
2005-05-04 04:56:39 51°14.514 2°54.707 309.4 13.3 303 9.7
2005-05-04 04:56:43 51°14.522 2°54.686 308.8 13.4 300 9.8
2005-05-04 04:56:49 51°14.533 2°54.655 308.2 13.4 300 9.7
2005-05-04 04:56:54 51°14.544 2°54.627 308 13.4 301 9.8
2005-05-04 04:56:59 51°14.552 2°54.604 308.3 13.4 301 9.7
2005-05-04 04:57:04 51°14.562 2°54.579 308.8 13.5 301 9.6
2005-05-04 04:57:09 51°14.572 2°54.554 309 13.5 301 9.5
2005-05-04 04:57:13 51°14.58 2°54.531 309.2 13.5 301 9.6
2005-05-04 04:57:19 51°14.592 2°54.5 309.3 13.5 301 9.6
2005-05-04 04:57:24 51°14.602 2°54.474 309.1 13.5 301 9.6
2005-05-04 04:57:29 51°14.61 2°54.451 309.1 13.5 301 9.5
2005-05-04 04:57:33 51°14.619 2°54.428 308.6 13.5 301 9.5
2005-05-04 04:57:39 51°14.629 2°54.4 308.5 13.5 301 9.5
2005-05-04 04:57:44 51°14.64 2°54.371 308.5 13.5 301 9.5
2005-05-04 04:57:49 51°14.649 2°54.348 308.6 13.5 301 9.5
2005-05-04 04:57:54 51°14.659 2°54.322 308.5 13.4 300 9.5
2005-05-04 04:57:59 51°14.669 2°54.296 308.6 13.4 300 9.5
2005-05-04 04:58:04 51°14.679 2°54.268 309.1 13.6 301 9.6
2005-05-04 04:58:09 51°14.689 2°54.243 309.1 13.5 301 9.6
2005-05-04 04:58:14 51°14.698 2°54.219 309.5 13.6 301 9.6
2005-05-04 04:58:19 51°14.708 2°54.194 309.6 13.5 301 9.5
2005-05-04 04:58:23 51°14.716 2°54.171 309.5 13.5 301 9.5
2005-05-04 04:58:29 51°14.728 2°54.14 309.2 13.5 301 9.4
2005-05-04 04:58:34 51°14.736 2°54.117 309.1 13.5 301 9.4
2005-05-04 04:58:39 51°14.746 2°54.091 308.9 13.6 301 9.5
2005-05-04 04:58:44 51°14.757 2°54.063 309.1 13.5 301 9.4
2005-05-04 04:58:49 51°14.766 2°54.038 309.4 13.5 301 9.3
2005-05-04 04:58:54 51°14.776 2°54.015 309.9 13.5 302 9.4
2005-05-04 04:58:59 51°14.785 2°53.989 310.2 13.5 302 9.1
2005-05-04 04:59:04 51°14.796 2°53.961 310.3 13.5 301 9
2005-05-04 04:59:09 51°14.805 2°53.936 309.9 13.4 301 9
2005-05-04 04:59:14 51°14.815 2°53.91 309.3 13.4 300 8.9
2005-05-04 04:59:19 51°14.824 2°53.887 309 13.4 300 8.9
2005-05-04 04:59:24 51°14.834 2°53.859 309.1 13.4 301 8.9
2005-05-04 04:59:29 51°14.844 2°53.834 309.6 13.4 301 8.9
2005-05-04 04:59:33 51°14.851 2°53.814 309.9 13.4 301 9
2005-05-04 04:59:39 51°14.862 2°53.786 310.2 13.4 302 8.9
2005-05-04 04:59:45 51°14.874 2°53.755 310.5 13.4 302 9
2005-05-04 04:59:49 51°14.883 2°53.732 310.4 13.5 301 9
2005-05-04 04:59:54 51°14.891 2°53.709 310.3 13.5 301 9
2005-05-04 04:59:59 51°14.901 2°53.684 310.5 13.5 301 9.1
2005-05-04 05:00:04 51°14.912 2°53.656 310.5 13.4 301 9
2005-05-04 05:00:09 51°14.92 2°53.63 310.6 13.5 300 9.1
2005-05-04 05:00:14 51°14.928 2°53.603 308.2 13.5 300 9.1
2005-05-04 05:00:19 51°14.935 2°53.578 306 13.5 295 9.2
2005-05-04 05:00:25 51°14.944 2°53.545 304.1 13.5 294 9.2
2005-05-04 05:00:29 51°14.95 2°53.52 302.3 13.6 293 9.2
2005-05-04 05:00:34 51°14.956 2°53.495 301 13.6 292 9.3
2005-05-04 05:00:39 51°14.963 2°53.466 300.4 13.6 292 9.3
2005-05-04 05:00:44 51°14.971 2°53.436 300 13.6 291 9.3
2005-05-04 05:00:49 51°14.978 2°53.408 299.9 13.6 292 9.3
2005-05-04 05:00:54 51°14.985 2°53.38 300.1 13.6 292 9.3
2005-05-04 05:00:59 51°14.991 2°53.355 300.4 13.6 292 9.3
2005-05-04 05:01:04 51°14.999 2°53.324 300.5 13.6 291 9.3
2005-05-04 05:01:09 51°15.005 2°53.298 300.1 13.6 291 9.4
2005-05-04 05:01:14 51°15.012 2°53.27 299.8 13.6 291 9.4
2005-05-04 05:01:19 51°15.019 2°53.242 299.8 13.7 291 9.2
2005-05-04 05:01:24 51°15.026 2°53.211 299.9 13.7 291 9.4
2005-05-04 05:01:29 51°15.033 2°53.183 300.1 13.7 291 9.4
2005-05-04 05:01:34 51°15.039 2°53.158 300.3 13.7 291 9.2
2005-05-04 05:01:39 51°15.046 2°53.13 300.4 13.7 291 9.3
2005-05-04 05:01:44 51°15.054 2°53.099 300.3 13.7 292 9.5
2005-05-04 05:01:49 51°15.061 2°53.071 300 13.7 292 9.3
2005-05-04 05:01:54 51°15.067 2°53.042 299.6 13.7 291 9.6
2005-05-04 05:01:59 51°15.074 2°53.014 299.3 13.7 291 9.5
2005-05-04 05:02:05 51°15.081 2°52.983 299.2 13.7 291 9.6
2005-05-04 05:02:09 51°15.088 2°52.958 299.2 13.7 291 9.6
2005-05-04 05:02:14 51°15.094 2°52.933 299.2 13.7 291 9.6
2005-05-04 05:02:19 51°15.101 2°52.905 299.2 13.7 291 9.8
2005-05-04 05:02:24 51°15.109 2°52.874 299.5 13.7 291 9.8
2005-05-04 05:02:29 51°15.116 2°52.846 299.7 13.7 291 9.9
2005-05-04 05:02:34 51°15.123 2°52.817 300 13.7 291 9.9
2005-05-04 05:02:39 51°15.129 2°52.792 300 13.7 291 10
2005-05-04 05:02:45 51°15.137 2°52.758 299.8 13.8 292 10
2005-05-04 05:02:49 51°15.144 2°52.732 299.7 13.8 292 10.1
2005-05-04 05:02:55 51°15.151 2°52.701 299.6 13.8 292 10.1
2005-05-04 05:02:59 51°15.157 2°52.678 299.6 13.8 292 10.2
2005-05-04 05:03:03 51°15.163 2°52.652 299.7 13.8 292 10.2
2005-05-04 05:03:09 51°15.171 2°52.621 299.8 13.8 292 10.3
2005-05-04 05:03:13 51°15.178 2°52.596 299.9 13.8 293 10.3
2005-05-04 05:03:19 51°15.187 2°52.566 301.4 13.8 293 10.4
2005-05-04 05:03:24 51°15.197 2°52.536 304 13.7 298 10.5
2005-05-04 05:03:29 51°15.206 2°52.51 306.1 13.7 299 10.5
2005-05-04 05:03:35 51°15.216 2°52.481 307.9 13.6 300 10.6
2005-05-04 05:03:39 51°15.224 2°52.461 309.1 13.6 301 10.6
2005-05-04 05:03:44 51°15.235 2°52.433 309.8 13.6 302 10.7
2005-05-04 05:03:49 51°15.244 2°52.41 310.4 13.6 302 10.7
2005-05-04 05:03:54 51°15.255 2°52.382 310.6 13.6 302 10.8
2005-05-04 05:03:59 51°15.264 2°52.359 310.7 13.5 303 10.8
2005-05-04 05:04:04 51°15.275 2°52.33 310.8 13.5 303 10.8
2005-05-04 05:04:09 51°15.284 2°52.307 311 13.6 303 10.9
2005-05-04 05:04:14 51°15.294 2°52.281 310.8 13.6 303 11
2005-05-04 05:04:19 51°15.304 2°52.256 310.6 13.6 303 11.1
2005-05-04 05:04:24 51°15.314 2°52.23 310.6 13.5 302 11.1
2005-05-04 05:04:29 51°15.322 2°52.207 310.6 13.5 302 11.1
2005-05-04 05:04:34 51°15.333 2°52.179 310.4 13.5 302 11.3
2005-05-04 05:04:39 51°15.341 2°52.156 310.1 13.5 302 11.3
2005-05-04 05:04:44 51°15.352 2°52.128 310.1 13.5 302 11.3
2005-05-04 05:04:49 51°15.361 2°52.105 310.1 13.5 302 11.4
2005-05-04 05:04:54 51°15.371 2°52.08 310.2 13.4 302 11.4
2005-05-04 05:04:59 51°15.381 2°52.055 310.3 13.4 302 11.5
2005-05-04 05:05:05 51°15.393 2°52.024 310.5 13.5 302 11.5
2005-05-04 05:05:09 51°15.402 2°52.002 310.5 13.5 302 11.6
2005-05-04 05:05:14 51°15.412 2°51.976 310.5 13.5 302 11.5
2005-05-04 05:05:19 51°15.421 2°51.953 310.3 13.5 301 11.6
2005-05-04 05:05:23 51°15.429 2°51.93 310.1 13.5 301 11.7
2005-05-04 05:05:29 51°15.441 2°51.899 310.1 13.5 301 11.7
2005-05-04 05:05:33 51°15.449 2°51.879 309.9 13.5 301 11.7
2005-05-04 05:05:39 51°15.46 2°51.851 309.9 13.5 301 11.6
2005-05-04 05:05:44 51°15.47 2°51.825 310.1 13.5 301 11.6
2005-05-04 05:05:49 51°15.479 2°51.8 310.4 13.5 302 11.6
2005-05-04 05:05:54 51°15.49 2°51.772 310.6 13.5 302 11.6
2005-05-04 05:05:59 51°15.499 2°51.749 310.8 13.5 302 11.7
2005-05-04 05:06:04 51°15.51 2°51.721 310.8 13.5 301 11.8
2005-05-04 05:06:09 51°15.519 2°51.698 310.6 13.5 302 11.8
2005-05-04 05:06:14 51°15.53 2°51.67 310.3 13.5 302 11.8
2005-05-04 05:06:19 51°15.539 2°51.647 310.5 13.5 302 11.9
2005-05-04 05:06:24 51°15.55 2°51.619 310.6 13.5 302 12
2005-05-04 05:06:29 51°15.558 2°51.596 310.7 13.5 302 12
2005-05-04 05:06:33 51°15.567 2°51.573 310.7 13.5 302 12
2005-05-04 05:06:39 51°15.578 2°51.546 310.6 13.5 302 12
2005-05-04 05:06:44 51°15.589 2°51.517 310.2 13.5 302 12
2005-05-04 05:06:49 51°15.599 2°51.492 310.1 13.5 302 12
2005-05-04 05:06:54 51°15.607 2°51.469 310.2 13.5 302 12.1
2005-05-04 05:06:59 51°15.617 2°51.444 310.3 13.5 302 12
2005-05-04 05:07:04 51°15.628 2°51.416 310.6 13.5 302 12.1
2005-05-04 05:07:09 51°15.638 2°51.391 310.6 13.5 302 12.1
2005-05-04 05:07:13 51°15.646 2°51.371 310.8 13.5 302 12.1
2005-05-04 05:07:19 51°15.657 2°51.343 310.8 13.5 302 12.2
2005-05-04 05:07:24 51°15.667 2°51.318 310.8 13.5 302 12.2
2005-05-04 05:07:29 51°15.678 2°51.29 310.8 13.5 303 12.2
2005-05-04 05:07:34 51°15.688 2°51.265 310.7 13.5 303 12.2
2005-05-04 05:07:39 51°15.697 2°51.243 310.8 13.5 302 12.2
2005-05-04 05:07:44 51°15.707 2°51.217 310.7 13.5 302 12.2
2005-05-04 05:07:49 51°15.718 2°51.189 310.5 13.5 302 12.3
2005-05-04 05:07:54 51°15.727 2°51.166 310.3 13.5 302 12.3
2005-05-04 05:07:59 51°15.737 2°51.141 310.2 13.5 302 12.3
2005-05-04 05:08:04 51°15.748 2°51.114 310.3 13.5 302 12.3
2005-05-04 05:08:09 51°15.758 2°51.088 310.4 13.4 302 12.3
2005-05-04 05:08:14 51°15.768 2°51.063 310.4 13.4 302 12.3
2005-05-04 05:08:19 51°15.777 2°51.041 310.4 13.4 302 12.3
2005-05-04 05:08:25 51°15.788 2°51.011 310.4 13.4 302 12.3
2005-05-04 05:08:29 51°15.796 2°50.99 310.4 13.4 302 12.3
2005-05-04 05:08:33 51°15.805 2°50.968 310.3 13.4 301 12.2
2005-05-04 05:08:39 51°15.816 2°50.94 309.9 13.4 301 12.2
2005-05-04 05:08:44 51°15.826 2°50.912 309.9 13.4 301 12.3
2005-05-04 05:08:49 51°15.835 2°50.889 309.9 13.4 301 12.3
2005-05-04 05:08:54 51°15.844 2°50.864 309.8 13.3 301 12.4
2005-05-04 05:08:59 51°15.854 2°50.839 309.9 13.3 301 12.3
2005-05-04 05:09:04 51°15.865 2°50.811 310.2 13.3 301 12.4
2005-05-04 05:09:09 51°15.873 2°50.789 310.4 13.3 301 12.4
2005-05-04 05:09:14 51°15.884 2°50.763 310.4 13.3 301 12.4
2005-05-04 05:09:19 51°15.894 2°50.737 310.4 13.3 301 12.4
2005-05-04 05:09:24 51°15.904 2°50.71 310.4 13.3 302 12.3
2005-05-04 05:09:29 51°15.914 2°50.685 310.6 13.3 301 12.4
2005-05-04 05:09:34 51°15.924 2°50.66 310.7 13.3 301 12.4
2005-05-04 05:09:39 51°15.932 2°50.637 310.6 13.3 301 12.3
2005-05-04 05:09:43 51°15.94 2°50.617 310.6 13.2 301 12.2
2005-05-04 05:09:49 51°15.952 2°50.585 310.6 13.2 301 11.9
2005-05-04 05:09:55 51°15.963 2°50.557 310.6 13.2 301 11.7
2005-05-04 05:09:59 51°15.97 2°50.537 310.2 13.2 301 11.4
2005-05-04 05:10:05 51°15.982 2°50.508 310.1 13.2 301 11.1
2005-05-04 05:10:09 51°15.99 2°50.485 310.2 13.1 301 10.9
2005-05-04 05:10:15 51°16.001 2°50.458 310.2 13.1 301 10.6
2005-05-04 05:10:19 51°16.009 2°50.436 310.4 13.1 302 10.3
2005-05-04 05:10:24 51°16.018 2°50.414 310.5 13.1 302 10
2005-05-04 05:10:29 51°16.028 2°50.386 310.4 13.1 302 9.8
2005-05-04 05:10:34 51°16.036 2°50.364 310.2 13 301 9.7
2005-05-04 05:10:39 51°16.047 2°50.337 310 13 301 9.5
2005-05-04 05:10:44 51°16.056 2°50.312 309.9 13 301 9.5
2005-05-04 05:10:49 51°16.066 2°50.287 310.1 13 301 9.4
2005-05-04 05:10:54 51°16.075 2°50.263 310.5 13 301 9.4
2005-05-04 05:10:59 51°16.083 2°50.241 310.7 13 301 9.4
2005-05-04 05:11:04 51°16.094 2°50.213 310.7 13.1 302 9.4
2005-05-04 05:11:09 51°16.104 2°50.188 310.6 13.1 302 9.5
2005-05-04 05:11:14 51°16.113 2°50.163 310.7 13.1 302 9.7
2005-05-04 05:11:19 51°16.122 2°50.141 310.8 13.1 302 9.8
2005-05-04 05:11:25 51°16.134 2°50.111 311 13.1 302 9.9
2005-05-04 05:11:29 51°16.142 2°50.09 311 13.2 302 10
2005-05-04 05:11:34 51°16.152 2°50.065 311 13.2 302 10.1
2005-05-04 05:11:39 51°16.161 2°50.043 311 13.2 302 10.2
2005-05-04 05:11:44 51°16.172 2°50.015 311 13.2 302 10.2
2005-05-04 05:11:49 51°16.181 2°49.991 310.7 13.3 302 10.3
2005-05-04 05:11:53 51°16.189 2°49.971 310.6 13.3 302 10.4
2005-05-04 05:11:59 51°16.199 2°49.943 310.2 13.3 301 10.6
2005-05-04 05:12:04 51°16.209 2°49.918 309.9 13.3 301 10.5
2005-05-04 05:12:09 51°16.219 2°49.893 310.2 13.3 301 10.5
2005-05-04 05:12:14 51°16.229 2°49.866 310.5 13.3 302 10.5
2005-05-04 05:12:19 51°16.238 2°49.844 310.8 13.3 302 10.6
2005-05-04 05:12:23 51°16.247 2°49.821 311.1 13.2 302 10.6
2005-05-04 05:12:29 51°16.257 2°49.796 311.2 12.7 302 10.7
2005-05-04 05:12:34 51°16.266 2°49.772 310.9 11.7 302 10.7
2005-05-04 05:12:39 51°16.273 2°49.754 310.8 11.7 302 10.8
2005-05-04 05:12:44 51°16.282 2°49.737 313.2 11.7 302 10.9
2005-05-04 05:12:49 51°16.291 2°49.721 317.8 9.7 309 11
2005-05-04 05:12:54 51°16.299 2°49.71 323.6 9.7 309 10.9
2005-05-04 05:12:59 51°16.308 2°49.701 329.5 9.7 309 11.1
2005-05-04 05:13:04 51°16.317 2°49.693 335.4 7.3 329 11.1
2005-05-04 05:13:09 51°16.326 2°49.686 341.1 7 332 11.2
2005-05-04 05:13:14 51°16.334 2°49.68 345.1 6.6 336 11.2
2005-05-04 05:13:19 51°16.342 2°49.675 347.7 6.6 336 11.2
2005-05-04 05:13:24 51°16.351 2°49.671 352.4 6.3 343 11.3
2005-05-04 05:13:29 51°16.359 2°49.668 355.6 6.3 345 11.3
2005-05-04 05:13:34 51°16.367 2°49.664 356.3 6.3 345 11.5
2005-05-04 05:13:39 51°16.376 2°49.659 353.7 6.3 345 11.6
2005-05-04 05:13:44 51°16.385 2°49.654 350.7 6.7 340 11.7
2005-05-04 05:13:49 51°16.395 2°49.649 350.2 6.7 342 11.7
2005-05-04 05:13:54 51°16.404 2°49.646 351.8 6.6 345 11.8
2005-05-04 05:13:59 51°16.411 2°49.644 354.4 6.6 345 11.8
2005-05-04 05:14:04 51°16.42 2°49.643 -999 6.2 351 11.9
2005-05-04 05:14:09 51°16.428 2°49.645 7 6.2 351 12.1
2005-05-04 05:14:14 51°16.436 2°49.647 13 5.6 8 12
2005-05-04 05:14:19 51°16.443 2°49.649 17.1 5.5 10 12.1
2005-05-04 05:14:24 51°16.451 2°49.652 18.8 5.5 10 12.2
2005-05-04 05:14:29 51°16.459 2°49.653 19.3 5.5 11 12.3
2005-05-04 05:14:34 51°16.466 2°49.655 19 5.4 10 12.4
2005-05-04 05:14:39 51°16.473 2°49.656 18.5 5.4 10 12.6
2005-05-04 05:14:45 51°16.482 2°49.657 17 5.4 10 12.6
2005-05-04 05:14:49 51°16.488 2°49.656 13.4 5.3 1 12.8
2005-05-04 05:14:55 51°16.495 2°49.655 9 5.3 1 12.8
2005-05-04 05:14:59 51°16.5 2°49.653 4.9 5.3 1 12.8
2005-05-04 05:15:04 51°16.506 2°49.652 2.1 4.5 351 13
2005-05-04 05:15:09 51°16.512 2°49.65 0.7 4.5 351 13.2
2005-05-04 05:15:14 51°16.517 2°49.647 359.8 4.5 351 13.3
2005-05-04 05:15:19 51°16.523 2°49.646 359.6 4.5 351 13.4
2005-05-04 05:15:24 51°16.527 2°49.645 1.4 3.7 350 13.4
2005-05-04 05:15:29 51°16.532 2°49.644 3.9 3.7 350 13.6
2005-05-04 05:15:34 51°16.536 2°49.645 7.3 3.7 350 13.7
2005-05-04 05:15:39 51°16.54 2°49.645 11.6 3.1 5 13.7
2005-05-04 05:15:44 51°16.543 2°49.646 15.9 3.1 5 13.7
2005-05-04 05:15:49 51°16.547 2°49.647 20 2.6 15 13.7
2005-05-04 05:15:54 51°16.55 2°49.65 23.4 2.6 15 13.7
2005-05-04 05:15:59 51°16.553 2°49.652 28.3 2.3 24 13.8
2005-05-04 05:16:04 51°16.556 2°49.655 32 2.3 30 13.8
2005-05-04 05:16:09 51°16.558 2°49.658 35.7 2.2 33 13.8
2005-05-04 05:16:14 51°16.56 2°49.66 39.1 2.2 39 13.8
2005-05-04 05:16:19 51°16.563 2°49.664 41.4 2.2 39 13.8
2005-05-04 05:16:24 51°16.565 2°49.666 42.4 2.1 41 13.9
2005-05-04 05:16:29 51°16.567 2°49.669 42.5 2.1 41 13.9
2005-05-04 05:16:34 51°16.569 2°49.672 41.6 2.1 41 13.9
2005-05-04 05:16:39 51°16.571 2°49.674 39.9 1.9 37 13.9
2005-05-04 05:16:43 51°16.573 2°49.676 37.5 1.9 34 13.9
2005-05-04 05:16:49 51°16.575 2°49.678 35.5 1.8 28 13.9
2005-05-04 05:16:54 51°16.578 2°49.68 32.8 1.8 28 13.9
2005-05-04 05:16:59 51°16.58 2°49.681 30.4 1.8 22 13.9
2005-05-04 05:17:04 51°16.582 2°49.683 28.3 1.7 26 13.9
2005-05-04 05:17:09 51°16.584 2°49.684 27.1 1.6 20 13.9
2005-05-04 05:17:14 51°16.586 2°49.686 26.9 1.6 20 14
2005-05-04 05:17:19 51°16.587 2°49.687 27.5 1.6 20 14
2005-05-04 05:17:24 51°16.589 2°49.688 29.2 1.6 20 14
2005-05-04 05:17:29 51°16.592 2°49.69 31.4 1.6 20 14
2005-05-04 05:17:35 51°16.594 2°49.693 34.4 1.6 20 13.9
2005-05-04 05:17:39 51°16.595 2°49.695 37.7 1.8 39 14
2005-05-04 05:17:44 51°16.597 2°49.699 41 1.9 46 14
2005-05-04 05:17:49 51°16.599 2°49.702 44.2 1.9 46 14
2005-05-04 05:17:54 51°16.6 2°49.705 46.4 1.9 46 13.9
2005-05-04 05:17:59 51°16.602 2°49.708 47.1 1.9 46 13.9
2005-05-04 05:18:04 51°16.604 2°49.712 46.8 1.9 49 13.9
2005-05-04 05:18:09 51°16.606 2°49.714 44.6 1.9 49 14
2005-05-04 05:18:14 51°16.608 2°49.717 41.6 1.9 49 14
2005-05-04 05:18:19 51°16.61 2°49.719 39.3 1.9 49 14
2005-05-04 05:18:25 51°16.613 2°49.722 37.9 2 36 14
2005-05-04 05:18:29 51°16.615 2°49.725 37.3 2 36 14
2005-05-04 05:18:34 51°16.617 2°49.727 37.1 2.2 35 14
2005-05-04 05:18:39 51°16.62 2°49.731 37.9 2.2 35 14
2005-05-04 05:18:45 51°16.622 2°49.734 40.3 2.2 40 14
2005-05-04 05:18:49 51°16.624 2°49.737 43.5 2.2 40 14
2005-05-04 05:18:55 51°16.626 2°49.741 47.3 2.2 40 14
2005-05-04 05:18:59 51°16.627 2°49.744 51.4 2.3 53 14
2005-05-04 05:19:04 51°16.629 2°49.749 54.5 2.3 54 14
2005-05-04 05:19:09 51°16.632 2°49.756 55.7 2.3 55 14
2005-05-04 05:19:14 51°16.633 2°49.76 54.7 2.3 55 14
2005-05-04 05:19:19 51°16.634 2°49.763 51.8 2.1 52 14
2005-05-04 05:19:23 51°16.636 2°49.765 47.1 2 44 14.1
2005-05-04 05:19:29 51°16.638 2°49.768 43.4 1.9 41 14.1
2005-05-04 05:19:34 51°16.64 2°49.77 38.2 1.9 36 14
2005-05-04 05:19:39 51°16.642 2°49.772 33.7 1.9 36 14
2005-05-04 05:19:44 51°16.645 2°49.773 29.3 1.8 22 14
2005-05-04 05:19:49 51°16.647 2°49.774 25.9 1.9 19 13.9
2005-05-04 05:19:54 51°16.649 2°49.775 23.7 1.9 19 14
2005-05-04 05:19:59 51°16.651 2°49.776 23.4 1.9 20 14
2005-05-04 05:20:04 51°16.654 2°49.778 24.6 1.9 21 14
2005-05-04 05:20:09 51°16.657 2°49.781 27.2 2 26 14
2005-05-04 05:20:14 51°16.659 2°49.783 30.7 2 26 14
2005-05-04 05:20:19 51°16.661 2°49.786 35 2 26 14
2005-05-04 05:20:24 51°16.663 2°49.79 41 2 42 13.9
2005-05-04 05:20:29 51°16.665 2°49.794 46.3 2.1 53 13.9
2005-05-04 05:20:34 51°16.666 2°49.797 51.4 2 60 13.8
2005-05-04 05:20:39 51°16.667 2°49.801 55.5 2 65 13.8
2005-05-04 05:20:44 51°16.668 2°49.805 60.2 2 65 13.8
2005-05-04 05:20:49 51°16.668 2°49.809 62.9 1.7 78 13.8
2005-05-04 05:20:54 51°16.668 2°49.811 65.1 1.4 85 13.8
2005-05-04 05:20:59 51°16.668 2°49.814 67.3 1.4 89 13.8
2005-05-04 05:21:04 51°16.668 2°49.817 70.5 1.4 89 13.8
2005-05-04 05:21:09 51°16.668 2°49.82 73.7 1.3 98 13.9
2005-05-04 05:21:14 51°16.667 2°49.823 75.3 1.3 98 14.1
2005-05-04 05:21:19 51°16.667 2°49.825 77 1.2 110 14.1
2005-05-04 05:21:24 51°16.666 2°49.827 78.8 1.2 110 14.1
2005-05-04 05:21:29 51°16.665 2°49.828 80.6 0.9 129 14.5
2005-05-04 05:21:34 51°16.664 2°49.829 83.4 0.9 129 14.9
2005-05-04 05:21:39 51°16.663 2°49.83 86.6 0.9 129 15.3
2005-05-04 05:21:43 51°16.662 2°49.83 89.1 0.8 157 15.5
2005-05-04 05:21:49 51°16.661 2°49.83 92 0.9 166 15.5
2005-05-04 05:21:54 51°16.66 2°49.83 94.7 0.9 179 15.4
2005-05-04 05:21:59 51°16.659 2°49.83 97.6 0.9 185 15.4
2005-05-04 05:22:04 51°16.657 2°49.829 100 0.8 190 15.4
2005-05-04 05:22:09 51°16.656 2°49.829 102.3 0.8 190 15.3
2005-05-04 05:22:14 51°16.655 2°49.828 104.4 0.9 196 15.2
2005-05-04 05:22:19 51°16.654 2°49.827 106 1 200 15
2005-05-04 05:22:25 51°16.653 2°49.825 107.8 1 200 14.9
2005-05-04 05:22:29 51°16.652 2°49.824 109.5 0.9 217 14.9
2005-05-04 05:22:33 51°16.651 2°49.823 111.1 0.9 229 14.8
2005-05-04 05:22:39 51°16.65 2°49.821 112.8 0.9 229 14.8
2005-05-04 05:22:43 51°16.65 2°49.819 114.6 1.2 250 14.8
2005-05-04 05:22:49 51°16.649 2°49.815 116 1.2 250 14.9
2005-05-04 05:22:54 51°16.649 2°49.813 117.2 1.2 250 15
2005-05-04 05:22:59 51°16.648 2°49.81 118.2 1.3 252 15.2
2005-05-04 05:23:05 51°16.648 2°49.807 118.6 1.3 255 15.3
2005-05-04 05:23:09 51°16.647 2°49.804 118.8 1.3 255 -999
2005-05-04 05:23:15 51°16.647 2°49.801 118.9 1.3 255 -999
2005-05-04 05:23:19 51°16.647 2°49.799 119 1.4 255 -999
2005-05-04 05:23:25 51°16.646 2°49.796 118.9 1.4 255 -999
2005-05-04 05:23:30 51°16.646 2°49.793 118.3 1.2 253 -999
2005-05-04 05:23:35 51°16.645 2°49.791 117.5 1.2 253 -999
2005-05-04 05:23:39 51°16.644 2°49.79 116.5 0.9 238 6.1
2005-05-04 05:23:44 51°16.643 2°49.79 114.3 0.9 238 12.2
2005-05-04 05:23:49 51°16.642 2°49.789 111.3 0.9 238 11.1
2005-05-04 05:23:54 51°16.641 2°49.789 106.6 0.9 238 11.2
2005-05-04 05:23:59 51°16.64 2°49.789 102.6 0.9 238 12.1
2005-05-04 05:24:04 51°16.639 2°49.788 99.4 0.9 238 12.5
2005-05-04 05:24:09 51°16.637 2°49.788 97.3 -999 -999 12.1
2005-05-04 05:24:14 51°16.636 2°49.788 94.6 0.9 187 5
2005-05-04 05:24:19 51°16.635 2°49.788 92.7 0.9 187 4.8
2005-05-04 05:24:24 51°16.634 2°49.788 91.1 0.8 186 5.1
2005-05-04 05:24:29 51°16.632 2°49.787 89.9 0.9 185 4.8
2005-05-04 05:24:34 51°16.631 2°49.787 89 0.9 185 5.3
2005-05-04 05:24:39 51°16.63 2°49.787 88.1 0.9 185 5
2005-05-04 05:24:45 51°16.629 2°49.787 87.3 0.8 184 4.9
2005-05-04 05:24:49 51°16.627 2°49.787 86.7 0.9 183 4.8
2005-05-04 05:24:53 51°16.627 2°49.786 85.6 0.9 184 4.8
2005-05-04 05:24:59 51°16.626 2°49.786 85 0.9 183 5
2005-05-04 05:25:04 51°16.625 2°49.786 84.3 0.9 182 13.8
2005-05-04 05:25:09 51°16.624 2°49.786 83.7 0.9 180 13.8
2005-05-04 05:25:14 51°16.623 2°49.786 82.8 0.8 179 13.8
2005-05-04 05:25:19 51°16.622 2°49.786 82.1 0.8 179 13.8
2005-05-04 05:25:24 51°16.62 2°49.786 81.7 0.7 179 13.7
2005-05-04 05:25:29 51°16.619 2°49.787 80.9 0.9 176 13.7
2005-05-04 05:25:34 51°16.618 2°49.787 80.3 0.8 178 13.7
2005-05-04 05:25:39 51°16.617 2°49.787 79.8 0.8 178 13.7
2005-05-04 05:25:44 51°16.616 2°49.787 79.1 0.8 175 13.7
2005-05-04 05:25:49 51°16.614 2°49.787 78.3 0.9 174 13.7
2005-05-04 05:25:54 51°16.613 2°49.787 77.6 0.9 174 13.7
2005-05-04 05:25:59 51°16.612 2°49.788 77 0.9 174 13.7
2005-05-04 05:26:04 51°16.611 2°49.788 76.8 0.8 170 13.7
2005-05-04 05:26:09 51°16.61 2°49.788 76.3 0.8 170 13.7
2005-05-04 05:26:14 51°16.608 2°49.788 76 0.8 170 13.7
2005-05-04 05:26:19 51°16.607 2°49.788 75.4 0.8 170 13.7
2005-05-04 05:26:24 51°16.606 2°49.789 74.9 0.8 168 13.6
2005-05-04 05:26:29 51°16.605 2°49.789 74.4 0.8 168 13.6
2005-05-04 05:26:34 51°16.604 2°49.789 74 0.8 168 13.6
2005-05-04 05:26:39 51°16.603 2°49.79 73.3 0.8 168 13.6
2005-05-04 05:26:45 51°16.602 2°49.79 72.7 0.8 168 13.6
2005-05-04 05:26:49 51°16.601 2°49.791 72 0.9 168 13.6
2005-05-04 05:26:54 51°16.599 2°49.791 71.1 0.9 168 13.5
2005-05-04 05:26:59 51°16.598 2°49.791 70.3 0.8 169 13.5
2005-05-04 05:27:04 51°16.597 2°49.791 69.5 0.8 171 13.4
2005-05-04 05:27:09 51°16.596 2°49.792 68.6 0.8 169 13.5
2005-05-04 05:27:14 51°16.595 2°49.792 67.7 0.8 168 13.4
2005-05-04 05:27:19 51°16.594 2°49.792 66.8 0.8 168 13.4
2005-05-04 05:27:24 51°16.593 2°49.793 65.9 0.8 166 13.5
2005-05-04 05:27:29 51°16.592 2°49.793 64.9 0.8 170 13.4
2005-05-04 05:27:34 51°16.591 2°49.794 64.2 0.8 170 13.3
2005-05-04 05:27:39 51°16.59 2°49.794 63.1 0.8 170 13.3
2005-05-04 05:27:44 51°16.589 2°49.794 62.4 0.7 166 13.4
2005-05-04 05:27:49 51°16.588 2°49.794 61.7 0.7 166 13.3
2005-05-04 05:27:54 51°16.587 2°49.795 61 0.7 166 13.2
2005-05-04 05:27:59 51°16.586 2°49.795 60.1 0.7 166 13.2
2005-05-04 05:28:04 51°16.585 2°49.795 59.3 0.8 169 13.2
2005-05-04 05:28:09 51°16.584 2°49.795 58.3 0.8 169 13.2
2005-05-04 05:28:14 51°16.584 2°49.796 57.6 0.8 169 13.1
2005-05-04 05:28:19 51°16.583 2°49.796 56.8 0.8 169 13.1
2005-05-04 05:28:24 51°16.582 2°49.797 56 0.8 167 13.1
2005-05-04 05:28:29 51°16.581 2°49.797 55.3 0.8 167 13.1
2005-05-04 05:28:34 51°16.58 2°49.797 54.7 0.8 167 13.1
2005-05-04 05:28:39 51°16.579 2°49.798 53.9 0.8 167 13
2005-05-04 05:28:44 51°16.578 2°49.799 53.1 0.8 167 13
2005-05-04 05:28:49 51°16.577 2°49.799 52.3 0.8 167 13
2005-05-04 05:28:54 51°16.576 2°49.799 51.5 0.8 167 13
2005-05-04 05:28:59 51°16.576 2°49.8 50.9 0.6 164 12.9
2005-05-04 05:29:04 51°16.575 2°49.8 50.2 0.6 164 12.9
2005-05-04 05:29:09 51°16.574 2°49.8 49.6 0.6 167 12.9
2005-05-04 05:29:14 51°16.573 2°49.801 48.9 0.6 168 12.9
2005-05-04 05:29:19 51°16.572 2°49.801 48.3 0.6 168 12.9
2005-05-04 05:29:24 51°16.571 2°49.801 47.7 0.5 173 12.9
2005-05-04 05:29:29 51°16.57 2°49.801 46.9 0.5 173 12.9
2005-05-04 05:29:34 51°16.57 2°49.801 46.4 0.5 173 12.9
2005-05-04 05:29:39 51°16.569 2°49.801 45.7 0.6 170 12.9
2005-05-04 05:29:44 51°16.568 2°49.801 44.9 0.6 168 12.8
2005-05-04 05:29:49 51°16.567 2°49.802 44.3 0.6 168 12.9
2005-05-04 05:29:54 51°16.566 2°49.802 43.6 0.5 176 12.9
2005-05-04 05:29:59 51°16.566 2°49.802 43 0.6 171 12.9
2005-05-04 05:30:05 51°16.564 2°49.802 42 0.5 174 12.9
2005-05-04 05:30:09 51°16.564 2°49.802 41.2 0.5 172 12.8
2005-05-04 05:30:14 51°16.563 2°49.802 40.5 0.5 172 12.9
2005-05-04 05:30:19 51°16.562 2°49.803 39.6 0.6 168 12.9
2005-05-04 05:30:24 51°16.561 2°49.803 39.1 0.5 178 12.8
2005-05-04 05:30:29 51°16.56 2°49.803 38.4 0.5 176 12.8
2005-05-04 05:30:34 51°16.56 2°49.803 37.9 0.5 176 12.9
2005-05-04 05:30:39 51°16.56 2°49.803 37.2 0.5 176 12.8
2005-05-04 05:30:44 51°16.559 2°49.803 36.6 0.5 176 12.8
2005-05-04 05:30:49 51°16.558 2°49.803 35.9 0.4 169 12.8
2005-05-04 05:30:54 51°16.557 2°49.803 35.2 0.5 175 12.7
2005-05-04 05:30:59 51°16.556 2°49.803 34.5 0.6 171 12.7
2005-05-04 05:31:04 51°16.556 2°49.803 33.9 0.5 173 12.7
2005-05-04 05:31:09 51°16.555 2°49.803 33.3 0.5 173 12.8
2005-05-04 05:31:14 51°16.555 2°49.803 32.6 0.5 173 12.8
2005-05-04 05:31:19 51°16.554 2°49.803 31.9 0.5 173 12.8
2005-05-04 05:31:24 51°16.553 2°49.803 31.2 0.5 170 12.8
2005-05-04 05:31:29 51°16.552 2°49.803 30.4 0.5 172 12.8
2005-05-04 05:31:34 51°16.551 2°49.803 29.7 0.5 172 12.8
2005-05-04 05:31:39 51°16.551 2°49.803 28.6 0.5 187 12.7
2005-05-04 05:31:44 51°16.55 2°49.803 28.2 0.5 186 12.7
2005-05-04 05:31:49 51°16.549 2°49.802 27.5 0.5 186 12.7
2005-05-04 05:31:54 51°16.549 2°49.802 26.8 0.5 186 12.7
2005-05-04 05:31:59 51°16.548 2°49.802 26.4 0.5 186 12.7
2005-05-04 05:32:03 51°16.548 2°49.803 25.6 0.5 181 12.6
2005-05-04 05:32:09 51°16.547 2°49.803 25.1 0.5 181 12.5
2005-05-04 05:32:14 51°16.546 2°49.803 24.6 0.5 181 12.5
2005-05-04 05:32:19 51°16.545 2°49.803 24.2 0.5 181 12.5
2005-05-04 05:32:23 51°16.544 2°49.803 23.9 0.5 184 12.5
2005-05-04 05:32:29 51°16.543 2°49.802 23 0.5 184 12.5
2005-05-04 05:32:34 51°16.543 2°49.802 22.5 0.5 184 12.6
2005-05-04 05:32:39 51°16.542 2°49.802 21.9 0.5 188 12.5
2005-05-04 05:32:44 51°16.541 2°49.802 21.5 0.5 195 12.5
2005-05-04 05:32:49 51°16.541 2°49.801 20.9 0.5 177 12.6
2005-05-04 05:32:54 51°16.54 2°49.801 20.4 0.5 187 12.6
2005-05-04 05:32:59 51°16.539 2°49.801 19.9 0.5 187 12.7
2005-05-04 05:33:04 51°16.539 2°49.801 19.3 0.5 193 12.6
2005-05-04 05:33:09 51°16.538 2°49.801 18.8 0.5 191 12.5
2005-05-04 05:33:14 51°16.537 2°49.801 18.4 0.5 191 12.6
2005-05-04 05:33:19 51°16.536 2°49.801 18.1 0.5 192 12.6
2005-05-04 05:33:24 51°16.535 2°49.8 17.8 0.5 192 12.6
2005-05-04 05:33:29 51°16.535 2°49.8 17.4 0.5 190 12.6
2005-05-04 05:33:34 51°16.534 2°49.799 17 0.5 190 12.5
2005-05-04 05:33:39 51°16.534 2°49.799 16.5 0.5 190 12.4
2005-05-04 05:33:44 51°16.535 2°49.799 15.9 0.5 190 12.4
2005-05-04 05:33:49 51°16.536 2°49.799 14.6 0.8 358 12.4
2005-05-04 05:33:54 51°16.538 2°49.799 13.2 0.8 358 12.5
2005-05-04 05:33:59 51°16.54 2°49.799 11.5 0.8 358 12.6
2005-05-04 05:34:04 51°16.543 2°49.799 9.5 1.8 354 12.6
2005-05-04 05:34:09 51°16.546 2°49.799 7.5 1.8 354 12.7
2005-05-04 05:34:14 51°16.55 2°49.798 5.6 1.8 354 12.7
2005-05-04 05:34:19 51°16.553 2°49.798 4.7 1.8 354 12.7
2005-05-04 05:34:25 51°16.558 2°49.797 4.7 2.6 356 12.8
2005-05-04 05:34:29 51°16.562 2°49.797 5.8 2.6 356 12.8
2005-05-04 05:34:35 51°16.567 2°49.797 7 3.3 356 13
2005-05-04 05:34:39 51°16.57 2°49.797 7.5 3.3 356 13
2005-05-04 05:34:44 51°16.575 2°49.796 7.6 3.1 357 13
2005-05-04 05:34:49 51°16.579 2°49.795 7.2 3 355 13.2
2005-05-04 05:34:54 51°16.583 2°49.794 6.4 2.9 356 13.2
2005-05-04 05:34:59 51°16.586 2°49.794 5.7 2.8 352 13.3
2005-05-04 05:35:04 51°16.59 2°49.793 4.5 2.7 353 13.3
2005-05-04 05:35:09 51°16.593 2°49.792 3.4 2.4 351 13.5
2005-05-04 05:35:14 51°16.596 2°49.791 2.4 2.4 351 13.6
2005-05-04 05:35:19 51°16.599 2°49.79 0.7 2.3 347 13.5
2005-05-04 05:35:24 51°16.602 2°49.788 359.9 2.1 343 13.6
2005-05-04 05:35:29 51°16.604 2°49.787 358.5 1.9 343 13.7
2005-05-04 05:35:34 51°16.606 2°49.786 357.6 1.9 343 13.7
2005-05-04 05:35:39 51°16.608 2°49.785 357.5 1.4 342 13.8
2005-05-04 05:35:44 51°16.609 2°49.783 358.7 1.4 342 13.8
2005-05-04 05:35:49 51°16.611 2°49.783 0.7 1.4 342 13.9
2005-05-04 05:35:54 51°16.612 2°49.782 2.6 1.4 342 13.9
2005-05-04 05:35:59 51°16.614 2°49.781 3.9 1.1 346 13.9
2005-05-04 05:36:04 51°16.615 2°49.78 4.9 1.1 346 13.9
2005-05-04 05:36:09 51°16.617 2°49.779 5.4 1.1 346 14
2005-05-04 05:36:14 51°16.619 2°49.779 5.8 1.3 343 14
2005-05-04 05:36:19 51°16.62 2°49.778 5.8 1.3 343 14
2005-05-04 05:36:25 51°16.622 2°49.778 6 1.3 343 14
2005-05-04 05:36:29 51°16.623 2°49.777 5.8 1.1 350 13.9
2005-05-04 05:36:34 51°16.625 2°49.777 5.4 1.1 350 13.9
2005-05-04 05:36:39 51°16.626 2°49.775 5.3 1.2 328 13.9
2005-05-04 05:36:44 51°16.627 2°49.775 5.3 1 346 13.9
2005-05-04 05:36:49 51°16.629 2°49.774 5.1 1 346 13.8
2005-05-04 05:36:54 51°16.63 2°49.774 4.7 1 346 14
2005-05-04 05:36:59 51°16.631 2°49.774 5 0.9 349 14.1
2005-05-04 05:37:05 51°16.632 2°49.773 5 0.9 346 14.2
2005-05-04 05:37:09 51°16.633 2°49.772 5 0.9 342 14.4
2005-05-04 05:37:15 51°16.635 2°49.772 5 0.9 342 14.4
2005-05-04 05:37:19 51°16.635 2°49.771 4.6 0.7 339 14.4
2005-05-04 05:37:24 51°16.636 2°49.771 4.8 0.7 339 14.5
2005-05-04 05:37:29 51°16.637 2°49.77 4.6 0.7 339 14.5
2005-05-04 05:37:34 51°16.638 2°49.77 4.4 0.8 344 14.5
2005-05-04 05:37:39 51°16.64 2°49.769 5 0.8 344 14.3
2005-05-04 05:37:45 51°16.641 2°49.769 5.9 0.9 344 14.4
2005-05-04 05:37:49 51°16.643 2°49.769 7.8 0.9 344 14.4
2005-05-04 05:37:55 51°16.645 2°49.769 9.5 0.9 344 14.2
2005-05-04 05:37:59 51°16.646 2°49.77 13.7 1.4 13 14.3
2005-05-04 05:38:04 51°16.648 2°49.771 18.8 1.3 20 14.2
2005-05-04 05:38:09 51°16.649 2°49.771 22 1.3 20 14.2
2005-05-04 05:38:14 51°16.65 2°49.772 24.6 1.3 20 14.3
2005-05-04 05:38:19 51°16.65 2°49.773 27.7 1.3 20 14.2
2005-05-04 05:38:24 51°16.65 2°49.772 31.2 0.3 45 14.2
2005-05-04 05:38:29 51°16.65 2°49.773 34.1 0.3 45 14.2
2005-05-04 05:38:34 51°16.65 2°49.773 37 0.3 45 14.3
2005-05-04 05:38:39 51°16.649 2°49.773 39.5 0.3 45 14.3
2005-05-04 05:38:44 51°16.648 2°49.772 41.9 0.6 191 14.3
2005-05-04 05:38:49 51°16.647 2°49.771 44.5 0.6 191 14.2
2005-05-04 05:38:54 51°16.646 2°49.77 46.7 0.6 191 14.2
2005-05-04 05:38:59 51°16.644 2°49.769 48.9 1.1 206 14.2
2005-05-04 05:39:05 51°16.642 2°49.767 51.5 1.1 206 14.3
2005-05-04 05:39:09 51°16.641 2°49.766 53.2 1.3 211 14.3
2005-05-04 05:39:14 51°16.639 2°49.765 55.1 1.3 211 14.3
2005-05-04 05:39:19 51°16.638 2°49.764 57 1.3 211 14.3
2005-05-04 05:39:24 51°16.637 2°49.763 58.5 1.3 211 14.3
2005-05-04 05:39:29 51°16.635 2°49.763 59.4 1.3 211 14.3
2005-05-04 05:39:35 51°16.635 2°49.764 59.8 1.3 211 -999
2005-05-04 05:39:39 51°16.635 2°49.764 60.8 0.7 169 -999
2005-05-04 05:39:44 51°16.635 2°49.765 62.4 0.7 148 14.4
2005-05-04 05:39:49 51°16.636 2°49.768 63.3 0.7 148 14.4
2005-05-04 05:39:54 51°16.636 2°49.77 63.8 0.7 148 14.5
2005-05-04 05:39:59 51°16.635 2°49.772 62.5 0.9 108 14.4
2005-05-04 05:40:04 51°16.635 2°49.774 60.3 0.9 108 14.4
2005-05-04 05:40:09 51°16.635 2°49.776 57.3 0.9 108 14.3
2005-05-04 05:40:14 51°16.636 2°49.778 53.6 0.9 108 14.4
2005-05-04 05:40:19 51°16.636 2°49.781 49.7 1 102 14.5
2005-05-04 05:40:24 51°16.637 2°49.783 44.7 1 102 15
2005-05-04 05:40:29 51°16.638 2°49.785 40.1 1 102 15.2
2005-05-04 05:40:34 51°16.64 2°49.787 35.4 1 102 15.5
2005-05-04 05:40:39 51°16.642 2°49.787 30.5 1.3 28 15.2
2005-05-04 05:40:44 51°16.643 2°49.788 26.1 1.2 25 11
2005-05-04 05:40:49 51°16.644 2°49.788 23.4 1.1 20 11.4
2005-05-04 05:40:54 51°16.646 2°49.789 21.2 1 14 11.4
2005-05-04 05:40:59 51°16.647 2°49.789 20.1 1 14 14.7
2005-05-04 05:41:04 51°16.648 2°49.79 19.2 0.9 13 13.4
2005-05-04 05:41:09 51°16.649 2°49.79 18.8 0.9 13 14.4
2005-05-04 05:41:14 51°16.65 2°49.791 18.4 0.9 13 14.4
2005-05-04 05:41:19 51°16.651 2°49.791 18.2 0.7 16 14.3
2005-05-04 05:41:24 51°16.652 2°49.792 18.1 0.7 7 14.5
2005-05-04 05:41:29 51°16.653 2°49.792 18.1 0.6 12 14.4
2005-05-04 05:41:34 51°16.654 2°49.793 18.2 0.6 12 14.3
2005-05-04 05:41:39 51°16.654 2°49.793 18.3 0.5 14 14.3
2005-05-04 05:41:44 51°16.655 2°49.793 18.3 0.5 14 14.3
2005-05-04 05:41:49 51°16.655 2°49.793 18.3 0.5 22 14.3
2005-05-04 05:41:54 51°16.656 2°49.793 18.3 0.5 22 14.3
2005-05-04 05:41:59 51°16.657 2°49.794 18.4 0.5 22 14.2
2005-05-04 05:42:04 51°16.658 2°49.795 19.1 0.7 17 14.2
2005-05-04 05:42:09 51°16.659 2°49.795 20.6 0.7 17 14.1
2005-05-04 05:42:14 51°16.66 2°49.796 22.8 0.9 26 14.1
2005-05-04 05:42:19 51°16.661 2°49.797 25.2 1 32 14.1
2005-05-04 05:42:24 51°16.662 2°49.798 27.2 1 32 14
2005-05-04 05:42:29 51°16.663 2°49.8 29 0.7 40 13.9
2005-05-04 05:42:34 51°16.664 2°49.8 30.5 0.8 39 14.1
2005-05-04 05:42:39 51°16.665 2°49.802 31.2 0.8 46 14.1
2005-05-04 05:42:44 51°16.666 2°49.804 31.7 1 37 14.1
2005-05-04 05:42:49 51°16.667 2°49.806 32.8 1.4 42 14.1
2005-05-04 05:42:54 51°16.669 2°49.809 35.9 1.4 42 14
2005-05-04 05:42:59 51°16.671 2°49.812 39.1 1.4 42 14.1
2005-05-04 05:43:04 51°16.673 2°49.816 42 1.4 42 13.9
2005-05-04 05:43:09 51°16.675 2°49.821 45.7 2.4 51 13.9
2005-05-04 05:43:14 51°16.677 2°49.826 49.9 2.4 51 14.1
2005-05-04 05:43:19 51°16.679 2°49.832 54.4 2.9 64 14.1
2005-05-04 05:43:24 51°16.68 2°49.839 59.6 3 68 14.1
2005-05-04 05:43:29 51°16.681 2°49.845 65.4 3 68 14.2
2005-05-04 05:43:34 51°16.681 2°49.851 71.2 2.7 86 14.3
2005-05-04 05:43:39 51°16.681 2°49.857 75.4 2.6 86 14.4
2005-05-04 05:43:44 51°16.681 2°49.863 78.6 2.6 93 14.5
2005-05-04 05:43:49 51°16.68 2°49.868 80.9 2.5 92 14.7
2005-05-04 05:43:54 51°16.68 2°49.873 82.6 2.4 98 14.7
2005-05-04 05:43:59 51°16.679 2°49.878 84.1 2.4 97 14.6
2005-05-04 05:44:04 51°16.678 2°49.884 85.7 2.4 97 14.4
2005-05-04 05:44:09 51°16.677 2°49.889 86.8 2.3 102 14.3
2005-05-04 05:44:14 51°16.676 2°49.893 87.8 2.3 102 14.3
2005-05-04 05:44:19 51°16.676 2°49.897 89.3 2.2 104 14.2
2005-05-04 05:44:24 51°16.675 2°49.902 90.3 2.2 104 14.1
2005-05-04 05:44:29 51°16.674 2°49.907 91.5 2.1 109 14
2005-05-04 05:44:34 51°16.672 2°49.911 92.5 2.1 110 13.9
2005-05-04 05:44:39 51°16.671 2°49.915 93.6 2.1 110 13.8
2005-05-04 05:44:44 51°16.67 2°49.92 94.7 2.1 110 13.7
2005-05-04 05:44:49 51°16.669 2°49.923 95.8 2.1 117 13.7
2005-05-04 05:44:54 51°16.668 2°49.927 96.9 2.1 117 13.6
2005-05-04 05:44:59 51°16.666 2°49.931 98.1 2.1 117 13.5
2005-05-04 05:45:04 51°16.665 2°49.934 99.2 2 119 13.5
2005-05-04 05:45:09 51°16.663 2°49.938 100.2 1.9 120 13.4
2005-05-04 05:45:14 51°16.662 2°49.941 101.2 1.9 120 13.3
2005-05-04 05:45:19 51°16.661 2°49.945 102.4 1.9 120 13.2
2005-05-04 05:45:25 51°16.658 2°49.948 103.2 1.9 120 13.2
2005-05-04 05:45:29 51°16.657 2°49.951 104.3 1.9 120 13.1
2005-05-04 05:45:34 51°16.655 2°49.954 105 1.9 120 13.1
2005-05-04 05:45:39 51°16.654 2°49.957 106.3 1.9 131 13
2005-05-04 05:45:45 51°16.652 2°49.96 107.3 1.9 131 13
2005-05-04 05:45:49 51°16.651 2°49.963 108.3 1.8 132 12.9
2005-05-04 05:45:54 51°16.649 2°49.965 109.3 1.8 132 12.9
2005-05-04 05:45:59 51°16.647 2°49.969 110.3 1.8 133 12.8
2005-05-04 05:46:05 51°16.645 2°49.972 111.2 1.8 137 12.8
2005-05-04 05:46:09 51°16.643 2°49.974 112.1 1.8 137 12.8
2005-05-04 05:46:13 51°16.642 2°49.976 113.1 1.8 139 12.7
2005-05-04 05:46:19 51°16.64 2°49.979 113.9 1.8 139 12.7
2005-05-04 05:46:24 51°16.638 2°49.982 115 1.8 138 12.7
2005-05-04 05:46:29 51°16.636 2°49.985 116 1.8 138 12.7
2005-05-04 05:46:34 51°16.634 2°49.987 116.9 1.7 135 12.6
2005-05-04 05:46:39 51°16.632 2°49.989 117.8 1.7 135 12.6
2005-05-04 05:46:44 51°16.631 2°49.992 118.9 1.7 135 12.6
2005-05-04 05:46:49 51°16.628 2°49.994 119.7 1.7 135 12.4
2005-05-04 05:46:54 51°16.626 2°49.996 120.4 1.7 135 12.4
2005-05-04 05:46:59 51°16.625 2°49.998 121.3 1.7 135 12.5
2005-05-04 05:47:04 51°16.623 2°50 122.5 1.7 147 12.4
2005-05-04 05:47:09 51°16.62 2°50.003 123.7 1.7 146 12.3
2005-05-04 05:47:15 51°16.618 2°50.005 124.5 1.7 146 12.3
2005-05-04 05:47:19 51°16.617 2°50.007 125.5 1.7 148 12.3
2005-05-04 05:47:24 51°16.614 2°50.009 126.2 1.7 150 12.3
2005-05-04 05:47:29 51°16.612 2°50.01 127.2 1.7 151 12.2
2005-05-04 05:47:34 51°16.61 2°50.012 127.9 1.7 151 12.1
2005-05-04 05:47:39 51°16.608 2°50.014 128.9 1.7 151 12.1
2005-05-04 05:47:44 51°16.606 2°50.015 129.4 1.7 153 12.1
2005-05-04 05:47:49 51°16.604 2°50.017 130.3 1.7 153 12.1
2005-05-04 05:47:54 51°16.602 2°50.019 130.9 1.7 158 12.1
2005-05-04 05:47:59 51°16.6 2°50.02 131.9 1.7 154 12.1
2005-05-04 05:48:05 51°16.597 2°50.022 132.8 1.7 154 12
2005-05-04 05:48:09 51°16.595 2°50.024 133.7 1.6 156 12
2005-05-04 05:48:15 51°16.593 2°50.025 134.3 1.7 154 12.1
2005-05-04 05:48:19 51°16.591 2°50.026 135.1 1.7 154 12
2005-05-04 05:48:25 51°16.588 2°50.028 136.4 1.6 155 11.8
2005-05-04 05:48:29 51°16.586 2°50.029 137 1.7 158 11.8
2005-05-04 05:48:34 51°16.584 2°50.031 137.8 1.7 158 11.8
2005-05-04 05:48:39 51°16.582 2°50.032 138.9 1.7 158 11.7
2005-05-04 05:48:44 51°16.579 2°50.034 139.8 1.8 160 11.8
2005-05-04 05:48:50 51°16.577 2°50.035 140.7 1.8 160 11.7
2005-05-04 05:48:54 51°16.575 2°50.036 141.7 1.8 160 11.7
2005-05-04 05:48:59 51°16.572 2°50.037 142.5 1.9 162 11.7
2005-05-04 05:49:04 51°16.569 2°50.039 143.8 2 159 11.7
2005-05-04 05:49:09 51°16.566 2°50.041 146.1 2.4 163 11.7
2005-05-04 05:49:14 51°16.562 2°50.042 150.9 2.5 161 11.7
2005-05-04 05:49:19 51°16.558 2°50.043 154.2 2.8 168 11.8
2005-05-04 05:49:24 51°16.554 2°50.045 160.3 2.8 168 11.7
2005-05-04 05:49:29 51°16.549 2°50.045 164.3 3.1 172 11.6
2005-05-04 05:49:34 51°16.544 2°50.046 170.2 3.1 172 11.6
2005-05-04 05:49:39 51°16.54 2°50.045 175.1 3.4 178 11.6
2005-05-04 05:49:44 51°16.535 2°50.045 180.6 3.4 178 11.6
2005-05-04 05:49:49 51°16.53 2°50.043 185.5 3.6 188 11.5
2005-05-04 05:49:54 51°16.524 2°50.04 189.6 3.6 188 11.5
2005-05-04 05:49:59 51°16.519 2°50.038 194.6 3.7 195 11.6
2005-05-04 05:50:05 51°16.514 2°50.035 201 3.8 196 11.5
2005-05-04 05:50:09 51°16.509 2°50.032 205.7 3.8 200 11.3
2005-05-04 05:50:14 51°16.505 2°50.028 209.5 3.8 200 11.4
2005-05-04 05:50:19 51°16.5 2°50.023 215.4 3.8 200 11.5
2005-05-04 05:50:25 51°16.495 2°50.017 219.1 3.9 213 11.4
2005-05-04 05:50:29 51°16.491 2°50.012 224.2 4 216 11.5
2005-05-04 05:50:34 51°16.487 2°50.006 228.9 4 221 11.5
2005-05-04 05:50:39 51°16.484 2°50 233.7 4 221 11.4
2005-05-04 05:50:44 51°16.48 2°49.993 239.4 3.9 227 11.4
2005-05-04 05:50:49 51°16.477 2°49.986 244.4 3.9 234 11.5
2005-05-04 05:50:54 51°16.475 2°49.979 249.2 3.9 234 11.5
2005-05-04 05:50:59 51°16.472 2°49.971 253.1 3.9 234 11.4
2005-05-04 05:51:04 51°16.47 2°49.964 257.7 3.8 242 11.6
2005-05-04 05:51:09 51°16.469 2°49.956 262.5 3.8 242 11.4
2005-05-04 05:51:14 51°16.467 2°49.948 267.3 3.8 242 11.4
2005-05-04 05:51:19 51°16.466 2°49.941 272.1 3.7 258 11.6
2005-05-04 05:51:24 51°16.466 2°49.932 276.8 3.6 258 11.5
2005-05-04 05:51:29 51°16.466 2°49.924 281.4 3.6 264 11.5
2005-05-04 05:51:35 51°16.466 2°49.916 286.2 3.6 264 11.7
2005-05-04 05:51:39 51°16.466 2°49.909 290.9 3.6 264 11.5
2005-05-04 05:51:44 51°16.467 2°49.903 296.8 3.4 276 11.6
2005-05-04 05:51:49 51°16.468 2°49.895 300.8 3.4 276 11.6
2005-05-04 05:51:54 51°16.47 2°49.889 305.8 3.4 276 11.7
2005-05-04 05:51:59 51°16.471 2°49.883 310.6 3.4 276 11.7
2005-05-04 05:52:04 51°16.474 2°49.878 317.1 3.1 294 11.7
2005-05-04 05:52:09 51°16.476 2°49.872 321.5 2.9 303 11.7
2005-05-04 05:52:14 51°16.48 2°49.869 327.8 2.9 313 11.9
2005-05-04 05:52:19 51°16.484 2°49.865 331.9 2.9 313 11.8
2005-05-04 05:52:24 51°16.488 2°49.86 333.9 3.1 317 11.9
2005-05-04 05:52:29 51°16.491 2°49.855 334.6 3.1 317 12.1
2005-05-04 05:52:34 51°16.494 2°49.851 334 3.1 317 12.1
2005-05-04 05:52:39 51°16.497 2°49.846 332.8 3.1 317 12
2005-05-04 05:52:44 51°16.501 2°49.84 331.8 3.4 318 12.1
2005-05-04 05:52:49 51°16.505 2°49.835 331.6 3.5 318 12.1
2005-05-04 05:52:54 51°16.509 2°49.829 332.5 3.5 321 12.2
2005-05-04 05:52:59 51°16.512 2°49.825 334.7 3.5 321 12.3
2005-05-04 05:53:05 51°16.517 2°49.82 337.6 3.5 321 12.4
2005-05-04 05:53:09 51°16.521 2°49.816 341.1 3.6 330 12.5
2005-05-04 05:53:14 51°16.525 2°49.813 344.5 3.6 333 12.6
2005-05-04 05:53:19 51°16.53 2°49.809 346.2 3.6 333 12.7
2005-05-04 05:53:24 51°16.534 2°49.805 345.4 3.6 330 12.7
2005-05-04 05:53:29 51°16.539 2°49.8 342.4 3.6 330 12.7
2005-05-04 05:53:35 51°16.543 2°49.795 339 3.7 327 12.8
2005-05-04 05:53:39 51°16.547 2°49.792 338.5 3.7 327 12.9
2005-05-04 05:53:44 51°16.552 2°49.788 340.8 3.7 329 13.1
2005-05-04 05:53:49 51°16.556 2°49.785 344.8 3.6 336 13.1
2005-05-04 05:53:54 51°16.56 2°49.782 347.4 3.7 337 13.2
2005-05-04 05:53:59 51°16.565 2°49.779 348.6 3.7 338 13.3
2005-05-04 05:54:04 51°16.57 2°49.777 350.5 3.6 343 13.4
2005-05-04 05:54:09 51°16.575 2°49.776 354.9 3.7 351 13.5
2005-05-04 05:54:15 51°16.58 2°49.776 0.3 3.5 356 13.6
2005-05-04 05:54:19 51°16.584 2°49.777 6.2 3.3 359 13.7
2005-05-04 05:54:25 51°16.59 2°49.778 12.2 3.3 6 13.7
2005-05-04 05:54:29 51°16.594 2°49.779 16.2 3.4 11 13.7
2005-05-04 05:54:34 51°16.598 2°49.781 18.3 3.4 11 13.8
2005-05-04 05:54:39 51°16.602 2°49.782 18.4 3.4 11 13.9
2005-05-04 05:54:44 51°16.608 2°49.783 15.6 3.4 11 14
2005-05-04 05:54:49 51°16.613 2°49.784 12.7 3.4 11 14.1
2005-05-04 05:54:54 51°16.619 2°49.785 10.8 3.4 11 14.1
2005-05-04 05:54:59 51°16.625 2°49.787 11.6 3.4 11 14.2
2005-05-04 05:55:04 51°16.632 2°49.79 17.8 4.3 20 14.3
2005-05-04 05:55:09 51°16.637 2°49.793 21.6 4.3 20 14.6
2005-05-04 05:55:14 51°16.642 2°49.796 24.3 4.3 20 14.5
2005-05-04 05:55:19 51°16.647 2°49.798 25.6 3.8 19 15
2005-05-04 05:55:25 51°16.651 2°49.8 25.4 3.6 21 15.6
2005-05-04 05:55:29 51°16.655 2°49.802 22.9 3.6 21 15.1
2005-05-04 05:55:34 51°16.659 2°49.803 19.4 3.2 15 14.5
2005-05-04 05:55:39 51°16.663 2°49.804 15.8 3.2 15 14.2
2005-05-04 05:55:44 51°16.666 2°49.804 12.3 3.2 15 14.2
2005-05-04 05:55:49 51°16.67 2°49.804 8.5 2.7 -999 14.2
2005-05-04 05:55:55 51°16.674 2°49.803 4.8 2.7 -999 14.2
2005-05-04 05:55:59 51°16.676 2°49.802 1.3 2.5 352 14.2
2005-05-04 05:56:04 51°16.679 2°49.8 357.8 2.3 346 14.2
2005-05-04 05:56:09 51°16.682 2°49.799 354.2 2.3 341 14.3
2005-05-04 05:56:15 51°16.685 2°49.796 351 2.2 339 14.2
2005-05-04 05:56:19 51°16.687 2°49.795 347.8 2.1 334 14.3
2005-05-04 05:56:24 51°16.69 2°49.792 344.5 2 329 14.1
2005-05-04 05:56:29 51°16.692 2°49.79 341.6 1.9 324 14.1
2005-05-04 05:56:34 51°16.693 2°49.787 339.2 1.8 322 14.1
2005-05-04 05:56:39 51°16.694 2°49.785 337.5 1.5 316 14.1
2005-05-04 05:56:45 51°16.695 2°49.783 335.8 1.2 312 14.2
2005-05-04 05:56:49 51°16.695 2°49.782 333.4 0.8 297 14.2
2005-05-04 05:56:54 51°16.696 2°49.781 330.9 0.8 297 14
2005-05-04 05:56:59 51°16.695 2°49.781 329 0.4 247 14
2005-05-04 05:57:04 51°16.695 2°49.781 327.9 0.4 199 14.1
2005-05-04 05:57:09 51°16.694 2°49.781 327.4 0.4 199 14
2005-05-04 05:57:14 51°16.693 2°49.781 327.7 0.7 174 14.1
2005-05-04 05:57:19 51°16.691 2°49.782 328.4 0.8 167 14.2
2005-05-04 05:57:25 51°16.689 2°49.782 329.3 0.8 167 14.1
2005-05-04 05:57:29 51°16.688 2°49.783 330.6 1.2 164 14.2
2005-05-04 05:57:33 51°16.687 2°49.783 332 1.2 165 14.2
2005-05-04 05:57:39 51°16.685 2°49.784 333.3 1.2 165 14.1
2005-05-04 05:57:44 51°16.683 2°49.785 334.6 1.2 165 5
2005-05-04 05:57:49 51°16.682 2°49.785 336.3 1.2 168 5
2005-05-04 05:57:55 51°16.68 2°49.786 338.3 1.1 165 -999
2005-05-04 05:57:59 51°16.678 2°49.786 339.6 1.2 168 -999
2005-05-04 05:58:04 51°16.677 2°49.787 340.9 1.1 167 5.1
2005-05-04 05:58:09 51°16.675 2°49.788 342.3 1.2 167 14.4
2005-05-04 05:58:14 51°16.674 2°49.788 343.3 1.1 165 14.4
2005-05-04 05:58:19 51°16.672 2°49.788 344.7 1.1 165 14.3
2005-05-04 05:58:25 51°16.67 2°49.789 345.6 1.1 171 14.3
2005-05-04 05:58:29 51°16.669 2°49.789 346.6 1.1 171 14.4
2005-05-04 05:58:33 51°16.668 2°49.789 347.2 1 172 14.4
2005-05-04 05:58:39 51°16.667 2°49.79 347.4 0.9 176 14.4
2005-05-04 05:58:44 51°16.665 2°49.79 347.1 0.8 173 14.4
2005-05-04 05:58:49 51°16.665 2°49.79 346.6 0.8 173 14.4
2005-05-04 05:58:54 51°16.664 2°49.79 345.8 0.5 179 14.4
2005-05-04 05:58:59 51°16.663 2°49.789 345.1 0.5 183 14.5
2005-05-04 05:59:04 51°16.663 2°49.789 344.2 0.3 183 14.5
2005-05-04 05:59:09 51°16.663 2°49.789 343.6 0.3 183 14.4
2005-05-04 05:59:13 51°16.663 2°49.789 342.7 0.3 183 14.4
2005-05-04 05:59:19 51°16.662 2°49.789 341.8 0.3 183 14.5
2005-05-04 05:59:25 51°16.662 2°49.788 340.8 0.2 240 5.2
2005-05-04 05:59:29 51°16.662 2°49.788 339.9 0.1 231 14.4
2005-05-04 05:59:35 51°16.662 2°49.788 339.2 0.1 231 14.5
2005-05-04 05:59:39 51°16.662 2°49.788 338.9 0.2 209 14.4
2005-05-04 05:59:45 51°16.661 2°49.788 338.9 0.3 213 14.4
2005-05-04 05:59:49 51°16.661 2°49.788 339.1 0.2 187 14.5
2005-05-04 05:59:55 51°16.66 2°49.788 339.5 0.3 198 14.5
2005-05-04 05:59:59 51°16.66 2°49.788 339.8 0.3 187 14.5
2005-05-04 06:00:04 51°16.66 2°49.788 340.2 0.3 187 14.5
2005-05-04 06:00:09 51°16.659 2°49.787 340.8 0.3 187 14.5
2005-05-04 06:00:15 51°16.659 2°49.788 341.4 0.3 190 14.5
2005-05-04 06:00:19 51°16.659 2°49.788 341.9 0.3 189 14.5
2005-05-04 06:00:24 51°16.658 2°49.788 342.5 0.3 177 14.4
2005-05-04 06:00:29 51°16.658 2°49.788 343.3 0.3 188 14.5
2005-05-04 06:00:35 51°16.657 2°49.788 344 0.3 188 14.6
2005-05-04 06:00:39 51°16.656 2°49.788 344.7 0.3 188 14.5
2005-05-04 06:00:44 51°16.656 2°49.788 345.5 0.3 169 14.5
2005-05-04 06:00:49 51°16.655 2°49.788 346.2 0.4 183 14.6
2005-05-04 06:00:55 51°16.655 2°49.788 347.3 0.4 172 14.6
2005-05-04 06:00:59 51°16.654 2°49.788 348.2 0.4 172 14.6
2005-05-04 06:01:05 51°16.653 2°49.788 348.9 0.4 170 14.6
2005-05-04 06:01:09 51°16.653 2°49.788 349.5 0.4 170 14.6
2005-05-04 06:01:13 51°16.652 2°49.788 350.6 0.4 173 14.6
2005-05-04 06:01:19 51°16.651 2°49.788 351.4 0.4 173 14.7
2005-05-04 06:01:24 51°16.651 2°49.789 352.4 0.4 173 14.8
2005-05-04 06:01:29 51°16.65 2°49.788 353.1 0.4 173 14.8
2005-05-04 06:01:33 51°16.65 2°49.789 353.8 0.2 163 14.8
2005-05-04 06:01:39 51°16.65 2°49.789 353.8 0.2 163 14.8
2005-05-04 06:01:44 51°16.65 2°49.789 353 0.2 169 14.8
2005-05-04 06:01:49 51°16.649 2°49.789 352.7 0.2 169 14.7
2005-05-04 06:01:53 51°16.649 2°49.789 352.7 0.2 169 14.8
2005-05-04 06:01:59 51°16.649 2°49.789 352.7 0.2 169 14.2
2005-05-04 06:02:05 51°16.648 2°49.789 353.1 0.3 177 15
2005-05-04 06:02:09 51°16.648 2°49.789 353.1 0.3 177 14.3
2005-05-04 06:02:14 51°16.648 2°49.789 353.4 0.3 169 14.3
2005-05-04 06:02:19 51°16.647 2°49.789 353.6 0.3 169 14.3
2005-05-04 06:02:24 51°16.647 2°49.79 354.4 0.3 165 14.5
2005-05-04 06:02:29 51°16.646 2°49.79 354.7 0.3 165 13.7
2005-05-04 06:02:34 51°16.646 2°49.79 355.5 0.3 165 13.5
2005-05-04 06:02:39 51°16.645 2°49.79 355.8 0.3 165 13.8
2005-05-04 06:02:44 51°16.645 2°49.79 356.3 0.4 163 13.7
2005-05-04 06:02:49 51°16.644 2°49.79 356.9 0.4 163 13.9
2005-05-04 06:02:53 51°16.644 2°49.791 357.3 0.5 161 10.2
2005-05-04 06:02:59 51°16.643 2°49.791 357.8 0.4 172 10.7
2005-05-04 06:03:04 51°16.642 2°49.791 358.1 0.5 162 12.4
2005-05-04 06:03:09 51°16.642 2°49.791 358.5 0.4 177 12.4
2005-05-04 06:03:14 51°16.642 2°49.791 358.7 0.4 167 12.4
2005-05-04 06:03:19 51°16.642 2°49.791 358.7 -999 356 12.4
2005-05-04 06:03:25 51°16.643 2°49.791 358 0.4 347 14
2005-05-04 06:03:29 51°16.644 2°49.791 356.9 0.6 338 11.1
2005-05-04 06:03:34 51°16.645 2°49.79 354.9 0.6 338 10.1
2005-05-04 06:03:39 51°16.647 2°49.789 352.7 0.6 338 13.4
2005-05-04 06:03:44 51°16.649 2°49.788 350.1 1.3 336 14
2005-05-04 06:03:49 51°16.651 2°49.787 347.8 1.3 336 14.8
2005-05-04 06:03:54 51°16.653 2°49.785 345.2 1.3 336 14.7
2005-05-04 06:03:59 51°16.655 2°49.782 342.9 1.3 336 14.6
2005-05-04 06:04:05 51°16.657 2°49.779 339.3 1.3 336 14.6
2005-05-04 06:04:09 51°16.659 2°49.777 336.2 1.3 336 14.5
2005-05-04 06:04:15 51°16.661 2°49.774 334.3 1.9 317 14.5
2005-05-04 06:04:19 51°16.663 2°49.771 332.4 1.9 316 14.5
2005-05-04 06:04:24 51°16.665 2°49.768 330.9 1.9 315 14.5
2005-05-04 06:04:29 51°16.666 2°49.765 329.3 1.9 312 14.5
2005-05-04 06:04:34 51°16.668 2°49.762 328 1.8 307 14.4
2005-05-04 06:04:39 51°16.67 2°49.76 327.3 1.7 309 14.4
2005-05-04 06:04:44 51°16.672 2°49.757 326.2 1.7 309 14.5
2005-05-04 06:04:49 51°16.673 2°49.754 324.8 1.6 309 14.4
2005-05-04 06:04:53 51°16.674 2°49.751 324.1 1.6 306 14.3
2005-05-04 06:04:59 51°16.675 2°49.748 323.7 1.6 306 14.3
2005-05-04 06:05:04 51°16.676 2°49.746 323.6 1.6 306 14.3
2005-05-04 06:05:10 51°16.677 2°49.743 323.5 1.6 306 14.3
2005-05-04 06:05:14 51°16.678 2°49.74 323.4 1.3 304 14.4
2005-05-04 06:05:19 51°16.679 2°49.738 323.2 1.3 301 14.3
2005-05-04 06:05:24 51°16.68 2°49.735 322.8 1.3 301 14.2
2005-05-04 06:05:29 51°16.681 2°49.733 322.5 1.3 301 14.2
2005-05-04 06:05:35 51°16.682 2°49.73 322.5 1.3 301 14.2
2005-05-04 06:05:39 51°16.682 2°49.728 322.4 1.3 301 14.2
2005-05-04 06:05:45 51°16.683 2°49.726 322.2 1.1 300 14.2
2005-05-04 06:05:49 51°16.684 2°49.724 322.1 1.1 298 14.1
2005-05-04 06:05:53 51°16.684 2°49.722 321.7 1.1 298 14.1
2005-05-04 06:05:59 51°16.685 2°49.72 321.6 1.1 298 14.1
2005-05-04 06:06:04 51°16.686 2°49.717 321.5 1.1 295 14.1
2005-05-04 06:06:09 51°16.686 2°49.715 320.7 1.1 295 14
2005-05-04 06:06:14 51°16.687 2°49.712 318.2 1.3 292 13.9
2005-05-04 06:06:19 51°16.687 2°49.708 314.7 1.3 292 13.7
2005-05-04 06:06:24 51°16.688 2°49.704 309.9 1.3 292 13.8
2005-05-04 06:06:29 51°16.688 2°49.7 306.6 1.3 292 13.9
2005-05-04 06:06:34 51°16.689 2°49.696 302.4 1.8 277 13.8
2005-05-04 06:06:39 51°16.689 2°49.692 298.1 1.8 277 13.9
2005-05-04 06:06:45 51°16.689 2°49.686 292.8 2 270 13.8
2005-05-04 06:06:49 51°16.688 2°49.682 288.4 2.1 267 14
2005-05-04 06:06:54 51°16.688 2°49.677 283.8 2.1 267 13.9
2005-05-04 06:06:59 51°16.687 2°49.672 280.3 2.1 267 14
2005-05-04 06:07:04 51°16.686 2°49.667 274.7 2.5 253 14
2005-05-04 06:07:09 51°16.684 2°49.661 270 2.6 250 14.2
2005-05-04 06:07:15 51°16.682 2°49.655 265 2.6 250 14.2